This is the latest recevied weather packets stored in our database for station/object OK2CME-6. If no packets are shown the sender has not sent any weather packets the latest 10 day(s).
| Time | Temp. | Humidity | Pressure | Rain* | Wind** | Luminosity | Snow |
|---|---|---|---|---|---|---|---|
| 1777411550 | 5.56° C | 42% | 1025.4 hPa | 0 mm | - | 0 W/m² | - |
| 1777410350 | 6.11° C | 41% | 1025.3 hPa | 0 mm | - | 0 W/m² | - |
| 1777407427 | 6.11° C | 42% | 1025 hPa | 0 mm | - | 0 W/m² | - |
| 1777387027 | 13.33° C | 44% | 1023.5 hPa | 0 mm | - | 330 W/m² | - |
| 1777383427 | 13.33° C | 41% | 1023.7 hPa | 0 mm | - | 447 W/m² | - |
| 1777382227 | 13.33° C | 42% | 1024 hPa | 0 mm | - | 484 W/m² | - |
| 1777372627 | 12.22° C | 44% | 1024.2 hPa | 0 mm | - | 614 W/m² | - |
| 1777371427 | 12.22° C | 43% | 1024.6 hPa | 0 mm | - | 613 W/m² | - |
| 1777370227 | 12.22° C | 41% | 1024.7 hPa | 0 mm | - | 615 W/m² | - |
| 1777369027 | 12.22° C | 40% | 1024.4 hPa | 0 mm | - | 615 W/m² | - |
| 1777367827 | 12.22° C | 40% | 1024.8 hPa | 0 mm | - | 530 W/m² | - |
| 1777365427 | 11.67° C | 40% | 1024.6 hPa | 0 mm | - | 506 W/m² | - |
| 1777364227 | 11.67° C | 40% | 1024.4 hPa | 0 mm | - | 502 W/m² | - |
| 1777363027 | 11.11° C | 40% | 1024.4 hPa | 0 mm | - | 461 W/m² | - |
| 1777361827 | 11.11° C | 40% | 1024.3 hPa | 0 mm | - | 424 W/m² | - |
| 1777360627 | 11.11° C | 40% | 1024.3 hPa | 0 mm | - | 372 W/m² | - |
| 1777359427 | 10.56° C | 40% | 1024.1 hPa | 0 mm | - | 322 W/m² | - |
| 1777358227 | 10.56° C | 40% | 1024 hPa | 0 mm | - | 277 W/m² | - |
| 1777357027 | 10° C | 43% | 1024 hPa | 0 mm | - | 196 W/m² | - |
| 1777355827 | 8.89° C | 47% | 1024 hPa | 0 mm | - | 167 W/m² | - |
| 1777354627 | 8.33° C | 47% | 1024 hPa | 0 mm | - | 129 W/m² | - |
| 1777353427 | 6.67° C | 54% | 1023.8 hPa | 0 mm | - | 97 W/m² | - |
| 1777352227 | 6.67° C | 51% | 1023.8 hPa | 0 mm | - | 60 W/m² | - |
| 1777351027 | 6.11° C | 49% | 1023.6 hPa | 0 mm | - | 45 W/m² | - |
| 1777349827 | 6.11° C | 47% | 1023.4 hPa | 0 mm | - | 23 W/m² | - |
* Rain latest hour (hover to see other rain measurements)
** Current wind speed in m/s (hover to see current wind gust speed)